createdAt,value
2023-04-27T00:00:29.960Z,14.82
2023-04-27T00:02:57.551Z,14.78
2023-04-27T00:05:25.101Z,14.89
2023-04-27T00:07:52.034Z,14.75
2023-04-27T00:10:19.451Z,14.79
2023-04-27T00:12:48.873Z,14.78
2023-04-27T00:15:16.714Z,14.75
2023-04-27T00:17:44.485Z,14.71
2023-04-27T00:20:12.804Z,14.57
2023-04-27T00:22:40.370Z,14.67
2023-04-27T00:25:14.916Z,14.80
2023-04-27T00:27:42.383Z,14.84
2023-04-27T00:30:12.484Z,14.99
2023-04-27T00:32:39.386Z,14.52
2023-04-27T00:35:07.867Z,14.81
2023-04-27T00:37:35.353Z,14.76
2023-04-27T00:40:05.297Z,14.73
2023-04-27T00:42:33.028Z,14.79
2023-04-27T00:45:00.438Z,14.73
2023-04-27T00:47:30.656Z,14.70
2023-04-27T00:49:58.154Z,14.63
2023-04-27T00:52:26.696Z,14.80
2023-04-27T00:54:54.205Z,14.76
2023-04-27T00:57:21.396Z,14.80
2023-04-27T00:59:48.903Z,14.75
2023-04-27T01:02:16.790Z,14.92
2023-04-27T01:04:46.041Z,14.95
2023-04-27T01:07:13.367Z,14.90
2023-04-27T01:09:42.555Z,14.95
2023-04-27T01:12:10.132Z,14.96
2023-04-27T01:14:37.588Z,14.87
2023-04-27T01:17:04.890Z,15.00
2023-04-27T01:19:32.542Z,14.97
2023-04-27T01:22:02.251Z,14.85
2023-04-27T01:24:31.262Z,14.92
2023-04-27T01:26:58.915Z,14.62
2023-04-27T01:29:26.593Z,14.81
2023-04-27T01:31:54.163Z,14.78
2023-04-27T01:34:21.500Z,15.14
2023-04-27T01:36:49.183Z,15.20
2023-04-27T01:39:16.766Z,15.25
2023-04-27T01:41:46.155Z,15.22
2023-04-27T01:44:13.620Z,15.20
2023-04-27T01:46:40.917Z,15.07
2023-04-27T01:49:08.297Z,15.32
2023-04-27T01:51:35.951Z,15.36
2023-04-27T01:54:03.374Z,15.37
2023-04-27T01:56:30.969Z,15.27
2023-04-27T01:59:00.345Z,15.20
2023-04-27T02:01:28.003Z,15.32
2023-04-27T02:03:55.896Z,15.21
2023-04-27T02:06:23.844Z,15.22
2023-04-27T02:08:51.157Z,15.16
2023-04-27T02:11:19.357Z,15.03
2023-04-27T02:13:47.696Z,15.22
2023-04-27T02:16:16.763Z,15.24
2023-04-27T02:18:43.997Z,15.04
2023-04-27T02:21:11.407Z,15.12
2023-04-27T02:23:38.814Z,15.29
2023-04-27T02:26:06.336Z,15.18
2023-04-27T02:28:33.152Z,15.02
2023-04-27T02:31:00.981Z,14.93
2023-04-27T02:33:29.679Z,14.87
2023-04-27T02:35:57.164Z,14.89
2023-04-27T02:38:24.643Z,14.73
2023-04-27T02:40:54.419Z,14.95
2023-04-27T02:43:21.961Z,14.78
2023-04-27T02:45:49.357Z,14.94
2023-04-27T02:48:16.949Z,14.77
2023-04-27T02:50:46.825Z,14.87
2023-04-27T02:53:14.063Z,14.75
2023-04-27T02:55:47.151Z,14.58
2023-04-27T02:58:15.177Z,14.68
2023-04-27T03:00:43.152Z,14.69
2023-04-27T03:03:11.112Z,14.73
2023-04-27T03:05:38.557Z,14.81
2023-04-27T03:08:07.125Z,14.84
2023-04-27T03:10:34.867Z,14.83
2023-04-27T03:13:02.380Z,14.54
2023-04-27T03:15:30.221Z,14.70
2023-04-27T03:17:58.165Z,14.87
2023-04-27T03:20:25.984Z,15.07
2023-04-27T03:22:53.927Z,14.96
2023-04-27T03:25:24.660Z,14.89
2023-04-27T03:27:52.150Z,14.99
2023-04-27T03:30:20.139Z,14.93
2023-04-27T03:32:48.279Z,15.00
2023-04-27T03:35:15.774Z,15.06
2023-04-27T03:37:43.617Z,15.09
2023-04-27T03:40:12.956Z,14.75
2023-04-27T03:42:41.996Z,14.89
2023-04-27T03:45:09.978Z,14.68
2023-04-27T03:47:37.716Z,14.82
2023-04-27T03:50:05.450Z,15.03
2023-04-27T03:52:33.057Z,15.04
2023-04-27T03:55:00.424Z,14.98
2023-04-27T03:57:27.637Z,15.10
2023-04-27T03:59:57.808Z,14.73
2023-04-27T04:02:25.655Z,15.00
2023-04-27T04:04:53.087Z,15.05
2023-04-27T04:07:22.012Z,14.90
2023-04-27T04:09:49.621Z,15.05
2023-04-27T04:12:17.313Z,14.95
2023-04-27T04:14:45.605Z,14.74
2023-04-27T04:17:13.896Z,15.21
2023-04-27T04:19:41.500Z,15.19
2023-04-27T04:22:08.650Z,14.96
2023-04-27T04:24:36.258Z,15.08
2023-04-27T04:27:03.929Z,14.97
2023-04-27T04:29:31.885Z,15.13
2023-04-27T04:31:59.380Z,14.67
2023-04-27T04:34:28.922Z,14.82
2023-04-27T04:36:56.384Z,15.06
2023-04-27T04:39:24.342Z,15.10
2023-04-27T04:41:51.928Z,14.71
2023-04-27T04:44:19.823Z,15.07
2023-04-27T04:46:46.998Z,15.28
2023-04-27T04:49:14.005Z,15.16
2023-04-27T04:51:45.142Z,14.97
2023-04-27T04:54:11.969Z,15.01
2023-04-27T04:56:39.396Z,14.70
2023-04-27T04:59:06.902Z,14.47
2023-04-27T05:01:34.432Z,14.64
2023-04-27T05:04:02.436Z,14.58
2023-04-27T05:06:30.984Z,14.70
2023-04-27T05:09:00.141Z,14.54
2023-04-27T05:11:27.486Z,14.65
2023-04-27T05:13:54.461Z,14.92
2023-04-27T05:16:21.654Z,14.47
2023-04-27T05:18:49.219Z,14.91
2023-04-27T05:21:17.354Z,14.81
2023-04-27T05:23:44.649Z,14.58
2023-04-27T05:26:13.728Z,14.84
2023-04-27T05:28:41.135Z,15.06
2023-04-27T05:31:09.391Z,14.71
2023-04-27T05:33:36.815Z,14.84
2023-04-27T05:36:04.625Z,14.79
2023-04-27T05:38:33.787Z,14.94
2023-04-27T05:41:01.598Z,15.15
2023-04-27T05:43:31.669Z,15.24
2023-04-27T05:46:00.131Z,15.30
2023-04-27T05:48:27.889Z,15.43
2023-04-27T05:50:59.986Z,15.21
2023-04-27T05:53:27.807Z,15.34
2023-04-27T05:55:55.556Z,15.27
2023-04-27T05:58:23.633Z,15.12
2023-04-27T06:00:53.686Z,15.52
2023-04-27T06:03:21.580Z,15.82
2023-04-27T06:05:55.742Z,15.92
2023-04-27T06:08:24.410Z,15.99
2023-04-27T06:10:52.308Z,16.04
2023-04-27T06:13:20.062Z,15.78
2023-04-27T06:15:47.820Z,15.99
2023-04-27T06:18:16.725Z,15.67
2023-04-27T06:20:44.258Z,15.91
2023-04-27T06:23:11.757Z,16.03
2023-04-27T06:25:39.340Z,15.87
2023-04-27T06:28:06.954Z,15.79
2023-04-27T06:30:34.182Z,15.97
2023-04-27T06:33:00.953Z,16.34
2023-04-27T06:35:29.721Z,16.21
2023-04-27T06:37:57.530Z,16.11
2023-04-27T06:40:27.524Z,15.86
2023-04-27T06:42:55.045Z,16.24
2023-04-27T06:45:22.297Z,16.39
2023-04-27T06:47:51.653Z,16.31
2023-04-27T06:50:19.583Z,16.58
2023-04-27T06:52:49.046Z,16.65
2023-04-27T06:55:16.257Z,16.93
2023-04-27T06:57:44.097Z,17.12
2023-04-27T07:00:13.825Z,17.52
2023-04-27T07:02:41.899Z,17.54
2023-04-27T07:05:10.295Z,17.92
2023-04-27T07:07:38.229Z,18.28
2023-04-27T07:10:09.743Z,18.60
2023-04-27T07:12:37.863Z,18.81
2023-04-27T07:15:05.353Z,18.97
2023-04-27T07:17:33.493Z,18.22
2023-04-27T07:20:02.453Z,17.98
2023-04-27T07:22:30.165Z,18.00
2023-04-27T07:24:58.117Z,18.05
2023-04-27T07:27:27.535Z,18.49
2023-04-27T07:29:56.199Z,19.08
2023-04-27T07:32:23.837Z,19.55
2023-04-27T07:34:54.077Z,19.92
2023-04-27T07:37:22.778Z,19.85
2023-04-27T07:39:54.475Z,20.05
2023-04-27T07:42:22.714Z,19.63
2023-04-27T07:44:54.246Z,19.52
2023-04-27T07:47:21.301Z,18.90
2023-04-27T07:49:48.655Z,18.94
2023-04-27T07:52:16.585Z,19.33
2023-04-27T07:54:43.703Z,18.83
2023-04-27T07:57:13.799Z,18.39
2023-04-27T07:59:41.034Z,18.75
2023-04-27T08:02:19.027Z,18.66
2023-04-27T08:04:47.690Z,18.26
2023-04-27T08:07:15.977Z,17.92
2023-04-27T08:09:43.531Z,18.51
2023-04-27T08:12:10.653Z,18.33
2023-04-27T08:14:38.294Z,18.63
2023-04-27T08:17:07.695Z,18.49
2023-04-27T08:19:36.378Z,19.09
2023-04-27T08:22:04.447Z,18.94
2023-04-27T08:24:32.793Z,19.28
2023-04-27T08:27:00.309Z,19.04
2023-04-27T08:29:28.860Z,18.86
2023-04-27T08:32:00.816Z,18.64
2023-04-27T08:34:28.457Z,18.90
2023-04-27T08:36:58.826Z,19.04
2023-04-27T08:39:26.750Z,18.99
2023-04-27T08:41:54.024Z,19.14
2023-04-27T08:44:21.539Z,18.94
2023-04-27T08:46:49.189Z,18.79
2023-04-27T08:49:17.399Z,18.67
2023-04-27T08:51:45.904Z,18.20
2023-04-27T08:54:14.496Z,18.48
2023-04-27T08:56:41.255Z,18.59
2023-04-27T08:59:15.403Z,18.37
2023-04-27T09:01:45.169Z,18.10
2023-04-27T09:04:12.110Z,18.57
2023-04-27T09:06:39.256Z,18.71
2023-04-27T09:09:07.918Z,18.89
2023-04-27T09:11:38.625Z,18.53
2023-04-27T09:14:17.314Z,18.77
2023-04-27T09:16:44.943Z,18.64
2023-04-27T09:19:13.518Z,18.82
2023-04-27T09:21:40.875Z,18.38
2023-04-27T09:24:12.528Z,18.43
2023-04-27T09:26:43.050Z,18.85
2023-04-27T09:29:12.481Z,18.78
2023-04-27T09:31:42.671Z,18.69
2023-04-27T09:34:09.872Z,18.86
2023-04-27T09:36:38.861Z,18.69
2023-04-27T09:39:07.493Z,18.60
2023-04-27T09:41:36.732Z,18.34
2023-04-27T09:44:07.584Z,18.52
2023-04-27T09:46:35.680Z,18.73
2023-04-27T09:49:05.449Z,18.67
2023-04-27T09:51:34.520Z,18.44
2023-04-27T09:54:05.438Z,18.24
2023-04-27T09:56:48.897Z,18.30
2023-04-27T09:59:38.361Z,18.29
2023-04-27T10:02:20.883Z,18.53
2023-04-27T10:05:24.793Z,18.14
2023-04-27T10:07:53.875Z,17.77
2023-04-27T10:10:21.816Z,17.99
2023-04-27T10:13:02.478Z,17.68
2023-04-27T10:15:31.794Z,17.59
2023-04-27T10:18:05.262Z,17.80
2023-04-27T10:20:36.337Z,17.42
2023-04-27T10:23:05.355Z,18.24
2023-04-27T10:25:38.807Z,18.49
2023-04-27T10:28:06.127Z,18.38
2023-04-27T10:30:37.264Z,18.42
2023-04-27T10:33:06.824Z,18.37
2023-04-27T10:35:36.656Z,18.14
2023-04-27T10:38:08.048Z,18.17
2023-04-27T10:40:36.441Z,17.45
2023-04-27T10:43:10.888Z,17.96
2023-04-27T10:45:40.273Z,18.52
2023-04-27T10:48:09.672Z,18.70
2023-04-27T10:50:36.961Z,18.41
2023-04-27T10:53:05.398Z,18.04
2023-04-27T10:55:33.340Z,18.20
2023-04-27T10:58:02.265Z,18.25
2023-04-27T11:00:30.777Z,18.54
2023-04-27T11:03:11.771Z,18.82
2023-04-27T11:05:38.952Z,18.72
2023-04-27T11:08:06.706Z,18.52
2023-04-27T11:10:34.059Z,18.27
2023-04-27T11:13:07.465Z,18.43
2023-04-27T11:15:44.511Z,18.54
2023-04-27T11:18:12.912Z,18.54
2023-04-27T11:20:40.678Z,18.48
2023-04-27T11:23:08.134Z,18.74
2023-04-27T11:25:36.713Z,19.00
2023-04-27T11:28:04.037Z,18.82
2023-04-27T11:30:31.344Z,18.42
2023-04-27T11:32:59.258Z,17.88
2023-04-27T11:35:34.718Z,18.58
2023-04-27T11:38:01.830Z,18.64
2023-04-27T11:40:32.496Z,18.37
2023-04-27T11:43:01.228Z,18.60
2023-04-27T11:45:28.044Z,18.73
2023-04-27T11:47:55.555Z,18.97
2023-04-27T11:50:27.005Z,18.65
2023-04-27T11:53:01.212Z,18.99
2023-04-27T11:55:29.001Z,18.72
2023-04-27T11:57:59.706Z,18.62
2023-04-27T12:00:28.136Z,18.99
2023-04-27T12:02:55.163Z,18.99
2023-04-27T12:05:22.763Z,19.53
2023-04-27T12:07:50.982Z,19.02
2023-04-27T12:10:21.477Z,18.51
2023-04-27T12:12:49.253Z,18.66
2023-04-27T12:15:17.366Z,18.56
2023-04-27T12:17:50.935Z,18.25
2023-04-27T12:20:18.449Z,18.04
2023-04-27T12:22:45.897Z,18.39
2023-04-27T12:25:13.274Z,18.94
2023-04-27T12:27:41.698Z,18.73
2023-04-27T12:30:09.811Z,19.40
2023-04-27T12:32:36.645Z,19.03
2023-04-27T12:35:04.884Z,19.43
2023-04-27T12:37:32.581Z,19.38
2023-04-27T12:40:00.337Z,19.04
2023-04-27T12:42:28.453Z,18.86
2023-04-27T12:44:57.355Z,19.07
2023-04-27T12:47:45.955Z,18.77
2023-04-27T12:50:12.412Z,19.12
2023-04-27T12:52:39.265Z,19.28
2023-04-27T12:55:15.235Z,19.25
2023-04-27T12:57:45.466Z,19.03
2023-04-27T13:00:16.258Z,18.49
2023-04-27T13:02:43.260Z,19.29
2023-04-27T13:05:10.984Z,19.22
2023-04-27T13:07:38.829Z,19.13
2023-04-27T13:10:06.419Z,19.24
2023-04-27T13:12:34.894Z,19.75
2023-04-27T13:15:02.461Z,19.38
2023-04-27T13:17:32.078Z,19.66
2023-04-27T13:19:59.514Z,19.76
2023-04-27T13:22:27.362Z,19.28
2023-04-27T13:24:55.262Z,19.35
2023-04-27T13:27:22.599Z,19.22
2023-04-27T13:29:50.341Z,19.45
2023-04-27T13:32:17.585Z,19.09
2023-04-27T13:34:46.999Z,18.99
2023-04-27T13:37:21.136Z,19.16
2023-04-27T13:39:49.029Z,19.35
2023-04-27T13:42:16.217Z,18.70
2023-04-27T13:44:43.012Z,19.08
2023-04-27T13:47:09.992Z,19.07
2023-04-27T13:49:37.737Z,19.60
2023-04-27T13:52:06.540Z,19.27
2023-04-27T13:54:34.241Z,19.69
2023-04-27T13:57:01.111Z,19.67
2023-04-27T13:59:28.164Z,19.42
2023-04-27T14:01:57.761Z,20.02
2023-04-27T14:04:25.284Z,20.56
2023-04-27T14:06:52.790Z,19.89
2023-04-27T14:09:21.478Z,20.02
2023-04-27T14:11:56.459Z,19.66
2023-04-27T14:14:24.316Z,19.53
2023-04-27T14:16:51.549Z,19.55
2023-04-27T14:19:18.452Z,19.47
2023-04-27T14:21:45.581Z,19.01
2023-04-27T14:24:12.368Z,19.86
2023-04-27T14:26:40.790Z,19.47
2023-04-27T14:29:07.815Z,19.26
2023-04-27T14:31:34.856Z,18.40
2023-04-27T14:34:01.978Z,18.09
2023-04-27T14:36:28.765Z,17.76
2023-04-27T14:38:55.688Z,17.26
2023-04-27T14:41:22.685Z,17.41
2023-04-27T14:43:51.050Z,16.86
2023-04-27T14:46:20.934Z,16.46
2023-04-27T14:48:48.625Z,16.64
2023-04-27T14:51:16.054Z,16.60
2023-04-27T14:53:43.821Z,16.57
2023-04-27T14:56:11.085Z,15.96
2023-04-27T14:58:37.989Z,15.86
2023-04-27T15:01:07.804Z,16.30
2023-04-27T15:03:35.274Z,15.93
2023-04-27T15:06:02.686Z,16.07
2023-04-27T15:08:32.018Z,16.46
2023-04-27T15:11:00.658Z,16.36
2023-04-27T15:13:28.174Z,16.22
2023-04-27T15:15:55.306Z,16.32
2023-04-27T15:18:26.083Z,15.78
2023-04-27T15:20:54.229Z,16.00
2023-04-27T15:23:21.616Z,16.17
2023-04-27T15:25:50.008Z,16.41
2023-04-27T15:28:18.935Z,16.83
2023-04-27T15:30:46.552Z,16.28
2023-04-27T15:33:15.046Z,16.93
2023-04-27T15:35:43.711Z,17.02
2023-04-27T15:38:13.431Z,16.59
2023-04-27T15:40:41.392Z,17.11
2023-04-27T15:43:08.813Z,16.91
2023-04-27T15:45:36.281Z,17.26
2023-04-27T15:48:03.474Z,17.27
2023-04-27T15:50:30.721Z,17.61
2023-04-27T15:52:59.854Z,17.40
2023-04-27T15:55:27.425Z,17.65
2023-04-27T15:57:54.433Z,17.39
2023-04-27T16:00:22.602Z,17.92
2023-04-27T16:02:49.813Z,17.61
2023-04-27T16:05:16.940Z,17.69
2023-04-27T16:07:44.656Z,18.01
2023-04-27T16:10:14.022Z,17.91
2023-04-27T16:12:41.121Z,17.58
2023-04-27T16:15:10.876Z,17.73
2023-04-27T16:17:39.028Z,17.59
2023-04-27T16:20:08.003Z,17.78
2023-04-27T16:22:35.612Z,17.90
2023-04-27T16:25:02.843Z,17.93
2023-04-27T16:27:31.671Z,18.18
2023-04-27T16:29:59.242Z,17.80
2023-04-27T16:32:26.221Z,17.57
2023-04-27T16:34:53.197Z,17.26
2023-04-27T16:37:21.506Z,17.21
2023-04-27T16:39:48.653Z,16.95
2023-04-27T16:42:16.207Z,16.78
2023-04-27T16:44:44.538Z,17.06
2023-04-27T16:47:11.321Z,16.60
2023-04-27T16:49:38.101Z,16.73
2023-04-27T16:52:05.164Z,17.03
2023-04-27T16:54:31.993Z,16.81
2023-04-27T16:56:58.872Z,16.49
2023-04-27T16:59:25.518Z,16.97
2023-04-27T17:01:54.052Z,16.71
2023-04-27T17:04:21.027Z,16.10
2023-04-27T17:06:47.916Z,16.70
2023-04-27T17:09:14.845Z,16.57
2023-04-27T17:11:42.023Z,16.93
2023-04-27T17:14:09.945Z,16.42
2023-04-27T17:16:36.714Z,16.37
2023-04-27T17:19:05.065Z,16.80
2023-04-27T17:21:31.827Z,16.79
2023-04-27T17:23:58.749Z,16.28
2023-04-27T17:26:25.815Z,15.97
2023-04-27T17:28:54.747Z,16.23
2023-04-27T17:31:21.728Z,16.35
2023-04-27T17:33:49.593Z,16.35
2023-04-27T17:36:19.154Z,16.35
2023-04-27T17:38:46.196Z,16.18
2023-04-27T17:41:13.275Z,16.31
2023-04-27T17:43:40.291Z,16.39
2023-04-27T17:46:07.967Z,16.46
2023-04-27T17:48:37.816Z,16.50
2023-04-27T17:51:06.006Z,16.40
2023-04-27T17:53:36.633Z,16.69
2023-04-27T17:56:10.899Z,16.35
2023-04-27T17:58:38.636Z,16.66
2023-04-27T18:01:07.622Z,16.33
2023-04-27T18:03:34.557Z,16.74
2023-04-27T18:06:02.574Z,16.91
2023-04-27T18:08:30.642Z,16.33
2023-04-27T18:10:59.651Z,16.20
2023-04-27T18:13:27.035Z,16.25
2023-04-27T18:15:54.705Z,16.52
2023-04-27T18:18:24.687Z,16.28
2023-04-27T18:20:53.538Z,16.10
2023-04-27T18:23:22.608Z,16.33
2023-04-27T18:25:50.066Z,16.59
2023-04-27T18:28:18.683Z,16.54
2023-04-27T18:30:47.650Z,16.56
2023-04-27T18:33:15.085Z,16.39
2023-04-27T18:35:42.789Z,16.55
2023-04-27T18:38:09.693Z,16.53
2023-04-27T18:40:37.202Z,16.48
2023-04-27T18:43:03.941Z,16.66
2023-04-27T18:45:32.842Z,16.46
2023-04-27T18:48:00.624Z,16.56
2023-04-27T18:50:27.412Z,16.61
2023-04-27T18:52:54.294Z,16.60
2023-04-27T18:55:21.639Z,16.50
2023-04-27T18:57:49.313Z,16.81
2023-04-27T19:00:17.762Z,16.88
2023-04-27T19:02:46.725Z,16.43
2023-04-27T19:05:13.945Z,16.37
2023-04-27T19:07:42.099Z,16.52
2023-04-27T19:10:11.476Z,16.47
2023-04-27T19:12:38.690Z,16.84
2023-04-27T19:15:06.422Z,16.56
2023-04-27T19:17:33.878Z,16.53
2023-04-27T19:20:03.299Z,16.35
2023-04-27T19:22:30.855Z,16.18
2023-04-27T19:24:57.964Z,16.12
2023-04-27T19:27:25.885Z,16.30
2023-04-27T19:29:54.706Z,16.07
2023-04-27T19:32:23.405Z,16.28
2023-04-27T19:34:50.225Z,16.28
2023-04-27T19:37:20.519Z,15.85
2023-04-27T19:39:48.936Z,15.70
2023-04-27T19:42:15.782Z,16.00
2023-04-27T19:44:47.054Z,16.28
2023-04-27T19:47:14.461Z,16.13
2023-04-27T19:49:42.299Z,15.89
2023-04-27T19:52:10.164Z,16.30
2023-04-27T19:54:38.472Z,15.78
2023-04-27T19:57:06.617Z,15.48
2023-04-27T19:59:33.505Z,16.00
2023-04-27T20:02:01.766Z,15.61
2023-04-27T20:04:29.737Z,15.32
2023-04-27T20:06:56.770Z,15.52
2023-04-27T20:09:24.582Z,15.18
2023-04-27T20:11:53.550Z,15.01
2023-04-27T20:14:20.963Z,15.18
2023-04-27T20:16:51.570Z,15.60
2023-04-27T20:19:18.421Z,15.23
2023-04-27T20:21:47.407Z,15.38
2023-04-27T20:24:15.737Z,15.25
2023-04-27T20:26:43.451Z,15.31
2023-04-27T20:29:13.660Z,15.06
2023-04-27T20:31:41.238Z,15.29
2023-04-27T20:34:09.219Z,15.42
2023-04-27T20:36:36.446Z,14.93
2023-04-27T20:39:04.219Z,14.99
2023-04-27T20:41:32.265Z,14.96
2023-04-27T20:43:59.866Z,14.36
2023-04-27T20:46:28.809Z,14.53
2023-04-27T20:48:56.547Z,15.49
2023-04-27T20:51:23.410Z,15.60
2023-04-27T20:53:50.364Z,15.08
2023-04-27T20:56:18.303Z,14.76
2023-04-27T20:58:46.001Z,14.72
2023-04-27T21:01:13.675Z,14.77
2023-04-27T21:03:42.122Z,15.42
2023-04-27T21:06:09.600Z,14.80
2023-04-27T21:08:38.058Z,14.92
2023-04-27T21:11:06.199Z,15.13
2023-04-27T21:13:33.594Z,14.63
2023-04-27T21:16:01.434Z,14.63
2023-04-27T21:18:30.596Z,15.16
2023-04-27T21:21:00.597Z,14.76
2023-04-27T21:23:27.744Z,14.67
2023-04-27T21:25:55.435Z,14.33
2023-04-27T21:28:23.402Z,14.67
2023-04-27T21:30:50.699Z,14.96
2023-04-27T21:33:18.307Z,15.17
2023-04-27T21:35:45.583Z,15.07
2023-04-27T21:38:19.822Z,15.27
2023-04-27T21:40:47.417Z,15.12
2023-04-27T21:43:15.011Z,14.85
2023-04-27T21:45:41.842Z,14.91
2023-04-27T21:48:09.550Z,15.19
2023-04-27T21:50:37.036Z,14.96
2023-04-27T21:53:04.713Z,14.70
2023-04-27T21:55:34.320Z,14.65
2023-04-27T21:58:01.923Z,14.98
2023-04-27T22:00:29.118Z,14.93
2023-04-27T22:02:56.499Z,15.34
2023-04-27T22:05:24.168Z,14.89
2023-04-27T22:07:51.456Z,14.82
2023-04-27T22:10:19.189Z,14.74
2023-04-27T22:12:48.661Z,15.00
2023-04-27T22:15:16.194Z,15.11
2023-04-27T22:17:43.985Z,14.57
2023-04-27T22:20:12.513Z,14.91
2023-04-27T22:22:40.805Z,14.81
2023-04-27T22:25:09.276Z,15.12
2023-04-27T22:27:44.615Z,14.72
2023-04-27T22:30:16.362Z,14.27
2023-04-27T22:32:43.707Z,14.93
2023-04-27T22:35:18.700Z,14.23
2023-04-27T22:37:52.742Z,14.33
2023-04-27T22:40:20.175Z,14.31
2023-04-27T22:42:47.733Z,14.99
2023-04-27T22:45:17.052Z,14.82
2023-04-27T22:47:45.227Z,15.18
2023-04-27T22:50:12.876Z,14.93
2023-04-27T22:52:41.203Z,14.74
2023-04-27T22:55:09.977Z,14.65
2023-04-27T22:57:38.368Z,15.16
2023-04-27T23:00:07.531Z,15.13
2023-04-27T23:02:37.067Z,15.17
2023-04-27T23:05:05.225Z,15.00
2023-04-27T23:07:32.908Z,14.79
2023-04-27T23:10:00.497Z,14.69
2023-04-27T23:12:28.102Z,15.21
2023-04-27T23:14:55.983Z,15.02
2023-04-27T23:17:23.362Z,14.70
2023-04-27T23:19:52.403Z,14.97
2023-04-27T23:22:19.760Z,14.62
2023-04-27T23:24:47.417Z,14.93
2023-04-27T23:27:15.326Z,15.12
2023-04-27T23:29:42.898Z,15.31
2023-04-27T23:32:10.395Z,14.92
2023-04-27T23:34:38.066Z,15.08
2023-04-27T23:37:07.105Z,14.96
2023-04-27T23:39:34.604Z,15.41
2023-04-27T23:42:02.017Z,15.41
2023-04-27T23:44:29.250Z,15.34
2023-04-27T23:46:56.661Z,15.13
2023-04-27T23:49:24.090Z,15.63
2023-04-27T23:51:53.535Z,15.63
2023-04-27T23:54:23.361Z,15.90
2023-04-27T23:56:51.435Z,15.60
2023-04-27T23:59:18.684Z,15.39
